Terminal Aerodrome Forecast
Issued by NWS

Home | Current Version | Previous Version | Text Only | Print | Product List | Glossary On
Versions: 1 2 3 4 5 6 7 8 9 10 11 12 13 14 15 16 17 18 19 20 21 22 23 24 25 26 27 28 29 30 31 32
000
FTUS43 KDLH 271100 RRA
TAFBRD
TAF
KBRD 271154Z 2712/2812 VRB03KT P6SM SCT080
      TEMPO 2712/2713 2SM BR
     FM271900 30008G14KT P6SM SCT050
     FM280200 VRB03KT P6SM SKC
     FM280800 12006KT P6SM VCSH OVC060=

USA.gov is the U.S. government's official web portal to all federal, state and local government web resources and services.